sensor_id;sensor_type;location;lat;lon;timestamp;temperature;humidity
22666;DHT22;11499;49.486;11.104;2023-04-15T00:01:56;6.00;99.90
22666;DHT22;11499;49.486;11.104;2023-04-15T00:04:22;6.00;99.90
22666;DHT22;11499;49.486;11.104;2023-04-15T00:06:51;6.10;99.90
22666;DHT22;11499;49.486;11.104;2023-04-15T00:09:18;6.10;99.90
22666;DHT22;11499;49.486;11.104;2023-04-15T00:11:44;6.10;99.90
22666;DHT22;11499;49.486;11.104;2023-04-15T00:14:11;6.10;99.90
22666;DHT22;11499;49.486;11.104;2023-04-15T00:16:36;6.10;99.90
22666;DHT22;11499;49.486;11.104;2023-04-15T00:19:02;6.20;99.90
22666;DHT22;11499;49.486;11.104;2023-04-15T00:24:20;6.30;99.90
22666;DHT22;11499;49.486;11.104;2023-04-15T00:26:45;6.30;99.90
22666;DHT22;11499;49.486;11.104;2023-04-15T00:29:11;6.30;99.90
22666;DHT22;11499;49.486;11.104;2023-04-15T00:31:37;6.20;99.90
22666;DHT22;11499;49.486;11.104;2023-04-15T00:34:02;6.20;99.90
22666;DHT22;11499;49.486;11.104;2023-04-15T00:36:28;6.10;99.90
22666;DHT22;11499;49.486;11.104;2023-04-15T00:38:54;6.20;99.90
22666;DHT22;11499;49.486;11.104;2023-04-15T00:41:19;6.20;99.90
22666;DHT22;11499;49.486;11.104;2023-04-15T00:43:45;6.20;99.90
22666;DHT22;11499;49.486;11.104;2023-04-15T00:46:13;6.20;99.90
22666;DHT22;11499;49.486;11.104;2023-04-15T00:50:06;6.20;99.90
22666;DHT22;11499;49.486;11.104;2023-04-15T00:52:34;6.20;99.90
22666;DHT22;11499;49.486;11.104;2023-04-15T00:54:59;6.20;99.90
22666;DHT22;11499;49.486;11.104;2023-04-15T00:57:25;6.20;99.90
22666;DHT22;11499;49.486;11.104;2023-04-15T00:59:52;6.20;99.90
22666;DHT22;11499;49.486;11.104;2023-04-15T01:02:18;6.30;99.90
22666;DHT22;11499;49.486;11.104;2023-04-15T01:04:44;6.30;99.90
22666;DHT22;11499;49.486;11.104;2023-04-15T01:07:09;6.10;99.90
22666;DHT22;11499;49.486;11.104;2023-04-15T01:09:35;6.10;99.90
22666;DHT22;11499;49.486;11.104;2023-04-15T01:12:00;6.10;99.90
22666;DHT22;11499;49.486;11.104;2023-04-15T01:17:43;6.00;99.90
22666;DHT22;11499;49.486;11.104;2023-04-15T01:20:09;6.00;99.90
22666;DHT22;11499;49.486;11.104;2023-04-15T01:22:36;6.00;99.90
22666;DHT22;11499;49.486;11.104;2023-04-15T01:25:12;6.00;99.90
22666;DHT22;11499;49.486;11.104;2023-04-15T01:27:40;6.00;99.90
22666;DHT22;11499;49.486;11.104;2023-04-15T01:30:07;6.00;99.90
22666;DHT22;11499;49.486;11.104;2023-04-15T01:32:33;5.90;99.90
22666;DHT22;11499;49.486;11.104;2023-04-15T01:34:58;6.00;99.90
22666;DHT22;11499;49.486;11.104;2023-04-15T01:37:24;6.00;99.90
22666;DHT22;11499;49.486;11.104;2023-04-15T01:39:50;6.00;99.90
22666;DHT22;11499;49.486;11.104;2023-04-15T01:42:16;6.00;99.90
22666;DHT22;11499;49.486;11.104;2023-04-15T01:47:05;6.00;99.90
22666;DHT22;11499;49.486;11.104;2023-04-15T01:49:31;6.00;99.90
22666;DHT22;11499;49.486;11.104;2023-04-15T01:51:57;6.00;99.90
22666;DHT22;11499;49.486;11.104;2023-04-15T01:54:22;6.00;99.90
22666;DHT22;11499;49.486;11.104;2023-04-15T01:56:48;6.00;99.90
22666;DHT22;11499;49.486;11.104;2023-04-15T01:59:13;6.00;99.90
22666;DHT22;11499;49.486;11.104;2023-04-15T02:01:39;5.90;99.90
22666;DHT22;11499;49.486;11.104;2023-04-15T02:04:05;5.90;99.90
22666;DHT22;11499;49.486;11.104;2023-04-15T02:06:31;5.90;99.90
22666;DHT22;11499;49.486;11.104;2023-04-15T02:08:56;6.00;99.90
22666;DHT22;11499;49.486;11.104;2023-04-15T02:14:00;5.90;99.90
22666;DHT22;11499;49.486;11.104;2023-04-15T02:16:26;6.00;99.90
22666;DHT22;11499;49.486;11.104;2023-04-15T02:18:51;6.00;99.90
22666;DHT22;11499;49.486;11.104;2023-04-15T02:21:17;6.00;99.90
22666;DHT22;11499;49.486;11.104;2023-04-15T02:23:43;6.10;99.90
22666;DHT22;11499;49.486;11.104;2023-04-15T02:26:08;6.10;99.90
22666;DHT22;11499;49.486;11.104;2023-04-15T02:28:34;6.10;99.90
22666;DHT22;11499;49.486;11.104;2023-04-15T02:31:00;6.10;99.90
22666;DHT22;11499;49.486;11.104;2023-04-15T02:33:26;6.10;99.90
22666;DHT22;11499;49.486;11.104;2023-04-15T02:38:45;6.10;99.90
22666;DHT22;11499;49.486;11.104;2023-04-15T02:41:11;6.10;99.90
22666;DHT22;11499;49.486;11.104;2023-04-15T02:43:36;6.20;99.90
22666;DHT22;11499;49.486;11.104;2023-04-15T02:46:04;6.10;99.90
22666;DHT22;11499;49.486;11.104;2023-04-15T02:48:30;6.20;99.90
22666;DHT22;11499;49.486;11.104;2023-04-15T02:51:12;6.10;99.90
22666;DHT22;11499;49.486;11.104;2023-04-15T02:53:38;6.10;99.90
22666;DHT22;11499;49.486;11.104;2023-04-15T02:56:04;6.10;99.90
22666;DHT22;11499;49.486;11.104;2023-04-15T02:58:30;6.20;99.90
22666;DHT22;11499;49.486;11.104;2023-04-15T03:00:56;6.20;99.90
22666;DHT22;11499;49.486;11.104;2023-04-15T03:05:46;6.30;99.90
22666;DHT22;11499;49.486;11.104;2023-04-15T03:08:12;6.30;99.90
22666;DHT22;11499;49.486;11.104;2023-04-15T03:10:39;6.30;99.90
22666;DHT22;11499;49.486;11.104;2023-04-15T03:13:04;6.30;99.90
22666;DHT22;11499;49.486;11.104;2023-04-15T03:15:31;6.20;99.90
22666;DHT22;11499;49.486;11.104;2023-04-15T03:17:57;6.20;99.90
22666;DHT22;11499;49.486;11.104;2023-04-15T03:20:22;6.20;99.90
22666;DHT22;11499;49.486;11.104;2023-04-15T03:22:48;6.10;99.90
22666;DHT22;11499;49.486;11.104;2023-04-15T03:25:14;6.00;99.90
22666;DHT22;11499;49.486;11.104;2023-04-15T03:29:18;6.10;99.90
22666;DHT22;11499;49.486;11.104;2023-04-15T03:31:44;6.10;99.90
22666;DHT22;11499;49.486;11.104;2023-04-15T03:34:09;6.10;99.90
22666;DHT22;11499;49.486;11.104;2023-04-15T03:36:35;6.10;99.90
22666;DHT22;11499;49.486;11.104;2023-04-15T03:39:01;6.20;99.90
22666;DHT22;11499;49.486;11.104;2023-04-15T03:41:27;6.10;99.90
22666;DHT22;11499;49.486;11.104;2023-04-15T03:43:53;6.10;99.90
22666;DHT22;11499;49.486;11.104;2023-04-15T03:46:18;6.20;99.90
22666;DHT22;11499;49.486;11.104;2023-04-15T03:51:43;6.10;99.90
22666;DHT22;11499;49.486;11.104;2023-04-15T03:54:09;6.10;99.90
22666;DHT22;11499;49.486;11.104;2023-04-15T03:56:34;6.10;99.90
22666;DHT22;11499;49.486;11.104;2023-04-15T03:59:00;6.10;99.90
22666;DHT22;11499;49.486;11.104;2023-04-15T04:01:25;6.00;99.90
22666;DHT22;11499;49.486;11.104;2023-04-15T04:03:51;6.00;99.90
22666;DHT22;11499;49.486;11.104;2023-04-15T04:06:16;6.00;99.90
22666;DHT22;11499;49.486;11.104;2023-04-15T04:08:42;6.20;99.90
22666;DHT22;11499;49.486;11.104;2023-04-15T04:11:08;6.10;99.90
22666;DHT22;11499;49.486;11.104;2023-04-15T04:13:33;6.20;99.90
22666;DHT22;11499;49.486;11.104;2023-04-15T04:18:44;6.20;99.90
22666;DHT22;11499;49.486;11.104;2023-04-15T04:21:10;6.10;99.90
22666;DHT22;11499;49.486;11.104;2023-04-15T04:23:36;6.20;99.90
22666;DHT22;11499;49.486;11.104;2023-04-15T04:26:01;6.30;99.90
22666;DHT22;11499;49.486;11.104;2023-04-15T04:28:27;6.30;99.90
22666;DHT22;11499;49.486;11.104;2023-04-15T04:30:52;6.30;99.90
22666;DHT22;11499;49.486;11.104;2023-04-15T04:33:18;6.30;99.90
22666;DHT22;11499;49.486;11.104;2023-04-15T04:35:43;6.30;99.90
22666;DHT22;11499;49.486;11.104;2023-04-15T04:41:07;6.40;99.90
22666;DHT22;11499;49.486;11.104;2023-04-15T04:43:33;6.40;99.90
22666;DHT22;11499;49.486;11.104;2023-04-15T04:45:58;6.40;99.90
22666;DHT22;11499;49.486;11.104;2023-04-15T04:48:24;6.30;99.90
22666;DHT22;11499;49.486;11.104;2023-04-15T04:50:50;6.30;99.90
22666;DHT22;11499;49.486;11.104;2023-04-15T04:53:15;6.20;99.90
22666;DHT22;11499;49.486;11.104;2023-04-15T04:55:42;6.20;99.90
22666;DHT22;11499;49.486;11.104;2023-04-15T04:58:07;6.20;99.90
22666;DHT22;11499;49.486;11.104;2023-04-15T05:00:33;6.20;99.90
22666;DHT22;11499;49.486;11.104;2023-04-15T05:02:59;6.20;99.90
22666;DHT22;11499;49.486;11.104;2023-04-15T05:08:26;6.40;99.90
22666;DHT22;11499;49.486;11.104;2023-04-15T05:10:52;6.50;99.90
22666;DHT22;11499;49.486;11.104;2023-04-15T05:13:17;6.50;99.90
22666;DHT22;11499;49.486;11.104;2023-04-15T05:15:43;6.60;99.90
22666;DHT22;11499;49.486;11.104;2023-04-15T05:18:09;6.60;99.90
22666;DHT22;11499;49.486;11.104;2023-04-15T05:20:34;6.60;99.90
22666;DHT22;11499;49.486;11.104;2023-04-15T05:23:00;6.60;99.90
22666;DHT22;11499;49.486;11.104;2023-04-15T05:25:26;6.70;99.90
22666;DHT22;11499;49.486;11.104;2023-04-15T05:27:51;6.80;99.90
22666;DHT22;11499;49.486;11.104;2023-04-15T05:31:58;6.80;99.90
22666;DHT22;11499;49.486;11.104;2023-04-15T05:34:24;6.90;99.90
22666;DHT22;11499;49.486;11.104;2023-04-15T05:36:49;6.80;99.90
22666;DHT22;11499;49.486;11.104;2023-04-15T05:39:15;6.90;99.90
22666;DHT22;11499;49.486;11.104;2023-04-15T05:41:40;7.00;99.90
22666;DHT22;11499;49.486;11.104;2023-04-15T05:44:06;7.10;99.90
22666;DHT22;11499;49.486;11.104;2023-04-15T05:46:31;7.20;99.90
22666;DHT22;11499;49.486;11.104;2023-04-15T05:48:57;7.20;99.90
22666;DHT22;11499;49.486;11.104;2023-04-15T05:51:22;7.20;99.90
22666;DHT22;11499;49.486;11.104;2023-04-15T05:55:30;7.20;99.90
22666;DHT22;11499;49.486;11.104;2023-04-15T05:57:56;7.40;99.90
22666;DHT22;11499;49.486;11.104;2023-04-15T06:00:21;7.20;99.90
22666;DHT22;11499;49.486;11.104;2023-04-15T06:02:47;7.30;99.90
22666;DHT22;11499;49.486;11.104;2023-04-15T06:05:12;7.40;99.90
22666;DHT22;11499;49.486;11.104;2023-04-15T06:07:38;7.50;99.90
22666;DHT22;11499;49.486;11.104;2023-04-15T06:10:05;7.40;99.90
22666;DHT22;11499;49.486;11.104;2023-04-15T06:12:30;7.40;99.90
22666;DHT22;11499;49.486;11.104;2023-04-15T06:17:44;7.40;99.90
22666;DHT22;11499;49.486;11.104;2023-04-15T06:20:10;7.40;99.90
22666;DHT22;11499;49.486;11.104;2023-04-15T06:22:36;7.40;99.90
22666;DHT22;11499;49.486;11.104;2023-04-15T06:25:03;7.40;99.90
22666;DHT22;11499;49.486;11.104;2023-04-15T06:27:29;7.50;99.90
22666;DHT22;11499;49.486;11.104;2023-04-15T06:29:55;7.50;99.90
22666;DHT22;11499;49.486;11.104;2023-04-15T06:32:20;7.50;99.90
22666;DHT22;11499;49.486;11.104;2023-04-15T06:34:46;7.50;99.90
22666;DHT22;11499;49.486;11.104;2023-04-15T06:37:11;7.60;99.90
22666;DHT22;11499;49.486;11.104;2023-04-15T06:39:41;7.70;99.90
22666;DHT22;11499;49.486;11.104;2023-04-15T06:44:48;7.60;99.90
22666;DHT22;11499;49.486;11.104;2023-04-15T06:47:13;7.60;99.90
22666;DHT22;11499;49.486;11.104;2023-04-15T06:49:40;7.70;99.90
22666;DHT22;11499;49.486;11.104;2023-04-15T06:52:05;7.90;99.90
22666;DHT22;11499;49.486;11.104;2023-04-15T06:54:31;8.00;99.90
22666;DHT22;11499;49.486;11.104;2023-04-15T06:56:56;7.90;99.90
22666;DHT22;11499;49.486;11.104;2023-04-15T06:59:22;8.00;99.90
22666;DHT22;11499;49.486;11.104;2023-04-15T07:01:48;8.00;99.90
22666;DHT22;11499;49.486;11.104;2023-04-15T07:04:13;8.20;99.90
22666;DHT22;11499;49.486;11.104;2023-04-15T07:06:39;8.40;99.90
22666;DHT22;11499;49.486;11.104;2023-04-15T07:10:48;8.40;99.90
22666;DHT22;11499;49.486;11.104;2023-04-15T07:13:14;8.30;99.90
22666;DHT22;11499;49.486;11.104;2023-04-15T07:15:40;8.20;99.90
22666;DHT22;11499;49.486;11.104;2023-04-15T07:18:05;8.30;99.90
22666;DHT22;11499;49.486;11.104;2023-04-15T07:20:31;8.50;99.90
22666;DHT22;11499;49.486;11.104;2023-04-15T07:22:56;8.50;99.90
22666;DHT22;11499;49.486;11.104;2023-04-15T07:25:22;8.70;99.90
22666;DHT22;11499;49.486;11.104;2023-04-15T07:27:48;8.80;99.90
22666;DHT22;11499;49.486;11.104;2023-04-15T07:32:53;9.00;99.90
22666;DHT22;11499;49.486;11.104;2023-04-15T07:35:18;9.00;99.90
22666;DHT22;11499;49.486;11.104;2023-04-15T07:37:47;8.90;99.90
22666;DHT22;11499;49.486;11.104;2023-04-15T07:40:12;8.80;99.90
22666;DHT22;11499;49.486;11.104;2023-04-15T07:42:39;8.80;99.90
22666;DHT22;11499;49.486;11.104;2023-04-15T07:45:05;8.80;99.90
22666;DHT22;11499;49.486;11.104;2023-04-15T07:47:31;8.80;99.90
22666;DHT22;11499;49.486;11.104;2023-04-15T07:49:56;8.60;99.90
22666;DHT22;11499;49.486;11.104;2023-04-15T07:52:22;8.50;99.90
22666;DHT22;11499;49.486;11.104;2023-04-15T07:54:47;8.40;99.90
22666;DHT22;11499;49.486;11.104;2023-04-15T08:00:08;8.30;99.90
22666;DHT22;11499;49.486;11.104;2023-04-15T08:02:34;8.20;99.90
22666;DHT22;11499;49.486;11.104;2023-04-15T08:04:59;8.00;99.90
22666;DHT22;11499;49.486;11.104;2023-04-15T08:07:27;8.00;99.90
22666;DHT22;11499;49.486;11.104;2023-04-15T08:09:53;7.90;99.90
22666;DHT22;11499;49.486;11.104;2023-04-15T08:12:18;7.90;99.90
22666;DHT22;11499;49.486;11.104;2023-04-15T08:14:44;7.80;99.90
22666;DHT22;11499;49.486;11.104;2023-04-15T08:17:10;7.80;99.90
22666;DHT22;11499;49.486;11.104;2023-04-15T08:21:56;7.80;99.90
22666;DHT22;11499;49.486;11.104;2023-04-15T08:24:22;7.40;99.90
22666;DHT22;11499;49.486;11.104;2023-04-15T08:26:47;7.20;99.90
22666;DHT22;11499;49.486;11.104;2023-04-15T08:29:13;7.10;99.90
22666;DHT22;11499;49.486;11.104;2023-04-15T08:31:38;7.10;99.90
22666;DHT22;11499;49.486;11.104;2023-04-15T08:34:04;7.10;99.90
22666;DHT22;11499;49.486;11.104;2023-04-15T08:36:29;7.10;99.90
22666;DHT22;11499;49.486;11.104;2023-04-15T08:38:56;7.20;99.90
22666;DHT22;11499;49.486;11.104;2023-04-15T08:41:23;7.20;99.90
22666;DHT22;11499;49.486;11.104;2023-04-15T08:45:27;7.20;99.90
22666;DHT22;11499;49.486;11.104;2023-04-15T08:47:55;7.00;99.90
22666;DHT22;11499;49.486;11.104;2023-04-15T08:50:21;6.90;99.90
22666;DHT22;11499;49.486;11.104;2023-04-15T08:52:48;6.80;99.90
22666;DHT22;11499;49.486;11.104;2023-04-15T08:55:14;6.90;99.90
22666;DHT22;11499;49.486;11.104;2023-04-15T08:57:40;6.90;99.90
22666;DHT22;11499;49.486;11.104;2023-04-15T09:00:06;6.80;99.90
22666;DHT22;11499;49.486;11.104;2023-04-15T09:02:33;6.90;99.90
22666;DHT22;11499;49.486;11.104;2023-04-15T09:04:59;6.90;99.90
22666;DHT22;11499;49.486;11.104;2023-04-15T09:07:25;6.90;99.90
22666;DHT22;11499;49.486;11.104;2023-04-15T09:12:39;6.90;99.90
22666;DHT22;11499;49.486;11.104;2023-04-15T09:15:05;7.00;99.90
22666;DHT22;11499;49.486;11.104;2023-04-15T09:17:32;7.00;99.90
22666;DHT22;11499;49.486;11.104;2023-04-15T09:20:28;7.10;99.90
22666;DHT22;11499;49.486;11.104;2023-04-15T09:22:54;7.20;99.90
22666;DHT22;11499;49.486;11.104;2023-04-15T09:27:59;7.10;99.90
22666;DHT22;11499;49.486;11.104;2023-04-15T09:30:27;7.10;99.90
22666;DHT22;11499;49.486;11.104;2023-04-15T09:33:01;7.20;99.90
22666;DHT22;11499;49.486;11.104;2023-04-15T09:35:27;7.20;99.90
22666;DHT22;11499;49.486;11.104;2023-04-15T09:40:36;7.30;99.90
22666;DHT22;11499;49.486;11.104;2023-04-15T09:43:03;7.30;99.90
22666;DHT22;11499;49.486;11.104;2023-04-15T09:45:30;7.30;99.90
22666;DHT22;11499;49.486;11.104;2023-04-15T09:48:13;7.30;99.90
22666;DHT22;11499;49.486;11.104;2023-04-15T09:50:41;7.20;99.90
22666;DHT22;11499;49.486;11.104;2023-04-15T09:53:15;7.20;99.90
22666;DHT22;11499;49.486;11.104;2023-04-15T09:55:48;7.00;99.90
22666;DHT22;11499;49.486;11.104;2023-04-15T09:58:27;7.00;99.90
22666;DHT22;11499;49.486;11.104;2023-04-15T10:00:55;7.00;99.90
22666;DHT22;11499;49.486;11.104;2023-04-15T10:03:32;7.00;99.90
22666;DHT22;11499;49.486;11.104;2023-04-15T10:08:40;6.90;99.90
22666;DHT22;11499;49.486;11.104;2023-04-15T10:11:06;6.70;99.90
22666;DHT22;11499;49.486;11.104;2023-04-15T10:13:32;6.70;99.90
22666;DHT22;11499;49.486;11.104;2023-04-15T10:16:05;6.70;99.90
22666;DHT22;11499;49.486;11.104;2023-04-15T10:18:34;6.70;99.90
22666;DHT22;11499;49.486;11.104;2023-04-15T10:21:00;6.70;99.90
22666;DHT22;11499;49.486;11.104;2023-04-15T10:23:26;6.80;99.90
22666;DHT22;11499;49.486;11.104;2023-04-15T10:25:53;6.90;99.90
22666;DHT22;11499;49.486;11.104;2023-04-15T10:30:56;6.90;99.90
22666;DHT22;11499;49.486;11.104;2023-04-15T10:33:23;6.80;99.90
22666;DHT22;11499;49.486;11.104;2023-04-15T10:35:50;6.70;99.90
22666;DHT22;11499;49.486;11.104;2023-04-15T10:41:17;6.80;99.90
22666;DHT22;11499;49.486;11.104;2023-04-15T10:43:54;6.90;99.90
22666;DHT22;11499;49.486;11.104;2023-04-15T10:46:43;7.00;99.90
22666;DHT22;11499;49.486;11.104;2023-04-15T10:49:15;7.10;99.90
22666;DHT22;11499;49.486;11.104;2023-04-15T10:54:37;7.40;99.90
22666;DHT22;11499;49.486;11.104;2023-04-15T10:59:29;8.80;99.90
22666;DHT22;11499;49.486;11.104;2023-04-15T11:02:01;8.90;99.90
22666;DHT22;11499;49.486;11.104;2023-04-15T11:04:53;9.10;99.90
22666;DHT22;11499;49.486;11.104;2023-04-15T11:07:54;9.10;99.90
22666;DHT22;11499;49.486;11.104;2023-04-15T11:13:31;9.10;99.90
22666;DHT22;11499;49.486;11.104;2023-04-15T11:15:55;8.80;99.90
22666;DHT22;11499;49.486;11.104;2023-04-15T11:21:24;8.80;99.90
22666;DHT22;11499;49.486;11.104;2023-04-15T11:23:50;8.70;99.90
22666;DHT22;11499;49.486;11.104;2023-04-15T11:26:16;8.60;99.90
22666;DHT22;11499;49.486;11.104;2023-04-15T11:28:43;8.40;99.90
22666;DHT22;11499;49.486;11.104;2023-04-15T11:31:16;8.20;99.90
22666;DHT22;11499;49.486;11.104;2023-04-15T11:33:59;8.50;99.90
22666;DHT22;11499;49.486;11.104;2023-04-15T11:36:28;8.50;99.90
22666;DHT22;11499;49.486;11.104;2023-04-15T11:38:54;8.70;99.90
22666;DHT22;11499;49.486;11.104;2023-04-15T11:44:01;9.00;99.90
22666;DHT22;11499;49.486;11.104;2023-04-15T11:46:30;9.00;99.90
22666;DHT22;11499;49.486;11.104;2023-04-15T11:48:56;8.90;99.90
22666;DHT22;11499;49.486;11.104;2023-04-15T11:51:21;8.90;99.90
22666;DHT22;11499;49.486;11.104;2023-04-15T11:53:49;9.40;99.90
22666;DHT22;11499;49.486;11.104;2023-04-15T11:56:22;9.70;99.90
22666;DHT22;11499;49.486;11.104;2023-04-15T11:58:51;10.50;99.90
22666;DHT22;11499;49.486;11.104;2023-04-15T12:01:17;10.30;99.90
22666;DHT22;11499;49.486;11.104;2023-04-15T12:03:47;10.70;99.90
22666;DHT22;11499;49.486;11.104;2023-04-15T12:06:33;10.50;99.90
22666;DHT22;11499;49.486;11.104;2023-04-15T12:10:43;10.60;99.90
22666;DHT22;11499;49.486;11.104;2023-04-15T12:13:08;10.30;99.90
22666;DHT22;11499;49.486;11.104;2023-04-15T12:15:37;10.10;99.90
22666;DHT22;11499;49.486;11.104;2023-04-15T12:18:03;10.10;99.90
22666;DHT22;11499;49.486;11.104;2023-04-15T12:20:30;9.90;99.90
22666;DHT22;11499;49.486;11.104;2023-04-15T12:23:04;9.70;99.90
22666;DHT22;11499;49.486;11.104;2023-04-15T12:25:34;9.60;99.90
22666;DHT22;11499;49.486;11.104;2023-04-15T12:27:59;9.50;99.90
22666;DHT22;11499;49.486;11.104;2023-04-15T12:30:25;9.40;99.90
22666;DHT22;11499;49.486;11.104;2023-04-15T12:32:51;9.60;99.90
22666;DHT22;11499;49.486;11.104;2023-04-15T12:38:36;9.80;99.90
22666;DHT22;11499;49.486;11.104;2023-04-15T12:41:01;10.20;99.90
22666;DHT22;11499;49.486;11.104;2023-04-15T12:43:27;9.80;99.90
22666;DHT22;11499;49.486;11.104;2023-04-15T12:45:53;9.90;99.90
22666;DHT22;11499;49.486;11.104;2023-04-15T12:48:18;10.00;99.90
22666;DHT22;11499;49.486;11.104;2023-04-15T12:50:44;10.10;99.90
22666;DHT22;11499;49.486;11.104;2023-04-15T12:53:09;10.10;99.90
22666;DHT22;11499;49.486;11.104;2023-04-15T12:55:35;9.80;99.90
22666;DHT22;11499;49.486;11.104;2023-04-15T12:58:00;9.90;99.90
22666;DHT22;11499;49.486;11.104;2023-04-15T13:00:26;9.80;99.90
22666;DHT22;11499;49.486;11.104;2023-04-15T13:05:38;10.00;99.90
22666;DHT22;11499;49.486;11.104;2023-04-15T13:08:04;10.20;99.90
22666;DHT22;11499;49.486;11.104;2023-04-15T13:10:30;10.40;99.90
22666;DHT22;11499;49.486;11.104;2023-04-15T13:12:56;10.70;99.90
22666;DHT22;11499;49.486;11.104;2023-04-15T13:15:22;10.70;99.90
22666;DHT22;11499;49.486;11.104;2023-04-15T13:17:48;10.90;99.90
22666;DHT22;11499;49.486;11.104;2023-04-15T13:20:14;11.00;99.90
22666;DHT22;11499;49.486;11.104;2023-04-15T13:22:39;10.70;99.90
22666;DHT22;11499;49.486;11.104;2023-04-15T13:25:06;9.90;99.90
22666;DHT22;11499;49.486;11.104;2023-04-15T13:27:32;9.90;99.90
22666;DHT22;11499;49.486;11.104;2023-04-15T13:32:35;9.90;99.90
22666;DHT22;11499;49.486;11.104;2023-04-15T13:35:01;9.80;99.90
22666;DHT22;11499;49.486;11.104;2023-04-15T13:37:27;9.70;99.90
22666;DHT22;11499;49.486;11.104;2023-04-15T13:39:53;9.80;99.90
22666;DHT22;11499;49.486;11.104;2023-04-15T13:42:19;9.60;99.90
22666;DHT22;11499;49.486;11.104;2023-04-15T13:44:45;9.60;99.90
22666;DHT22;11499;49.486;11.104;2023-04-15T13:47:10;9.80;99.90
22666;DHT22;11499;49.486;11.104;2023-04-15T13:49:37;9.80;99.90
22666;DHT22;11499;49.486;11.104;2023-04-15T13:52:02;9.50;99.90
22666;DHT22;11499;49.486;11.104;2023-04-15T13:54:28;9.50;99.90
22666;DHT22;11499;49.486;11.104;2023-04-15T13:59:36;9.90;99.90
22666;DHT22;11499;49.486;11.104;2023-04-15T14:02:02;9.50;99.90
22666;DHT22;11499;49.486;11.104;2023-04-15T14:04:27;9.20;99.90
22666;DHT22;11499;49.486;11.104;2023-04-15T14:06:53;9.00;99.90
22666;DHT22;11499;49.486;11.104;2023-04-15T14:09:18;8.70;99.90
22666;DHT22;11499;49.486;11.104;2023-04-15T14:11:46;8.70;99.90
22666;DHT22;11499;49.486;11.104;2023-04-15T14:14:12;8.70;99.90
22666;DHT22;11499;49.486;11.104;2023-04-15T14:16:37;8.80;99.90
22666;DHT22;11499;49.486;11.104;2023-04-15T14:21:43;8.90;99.90
22666;DHT22;11499;49.486;11.104;2023-04-15T14:24:09;8.80;99.90
22666;DHT22;11499;49.486;11.104;2023-04-15T14:26:35;8.80;99.90
22666;DHT22;11499;49.486;11.104;2023-04-15T14:29:00;8.70;99.90
22666;DHT22;11499;49.486;11.104;2023-04-15T14:31:26;8.70;99.90
22666;DHT22;11499;49.486;11.104;2023-04-15T14:33:51;8.30;99.90
22666;DHT22;11499;49.486;11.104;2023-04-15T14:36:17;8.10;99.90
22666;DHT22;11499;49.486;11.104;2023-04-15T14:38:42;8.30;99.90
22666;DHT22;11499;49.486;11.104;2023-04-15T14:41:08;8.30;99.90
22666;DHT22;11499;49.486;11.104;2023-04-15T14:46:09;8.30;99.90
22666;DHT22;11499;49.486;11.104;2023-04-15T14:48:35;8.40;99.90
22666;DHT22;11499;49.486;11.104;2023-04-15T14:51:00;8.60;99.90
22666;DHT22;11499;49.486;11.104;2023-04-15T14:53:26;8.50;99.90
22666;DHT22;11499;49.486;11.104;2023-04-15T14:55:51;8.70;99.90
22666;DHT22;11499;49.486;11.104;2023-04-15T14:58:17;8.80;99.90
22666;DHT22;11499;49.486;11.104;2023-04-15T15:00:43;8.80;99.90
22666;DHT22;11499;49.486;11.104;2023-04-15T15:03:10;8.70;99.90
22666;DHT22;11499;49.486;11.104;2023-04-15T15:05:44;8.80;99.90
22666;DHT22;11499;49.486;11.104;2023-04-15T15:08:10;8.70;99.90
22666;DHT22;11499;49.486;11.104;2023-04-15T15:13:17;8.60;99.90
22666;DHT22;11499;49.486;11.104;2023-04-15T15:15:43;8.50;99.90
22666;DHT22;11499;49.486;11.104;2023-04-15T15:18:09;8.40;99.90
22666;DHT22;11499;49.486;11.104;2023-04-15T15:20:35;8.40;99.90
22666;DHT22;11499;49.486;11.104;2023-04-15T15:23:01;8.30;99.90
22666;DHT22;11499;49.486;11.104;2023-04-15T15:25:27;8.40;99.90
22666;DHT22;11499;49.486;11.104;2023-04-15T15:27:52;8.30;99.90
22666;DHT22;11499;49.486;11.104;2023-04-15T15:30:18;8.30;99.90
22666;DHT22;11499;49.486;11.104;2023-04-15T15:34:33;8.30;99.90
22666;DHT22;11499;49.486;11.104;2023-04-15T15:36:59;8.30;99.90
22666;DHT22;11499;49.486;11.104;2023-04-15T15:39:25;8.40;99.90
22666;DHT22;11499;49.486;11.104;2023-04-15T15:41:51;8.30;99.90
22666;DHT22;11499;49.486;11.104;2023-04-15T15:44:16;8.20;99.90
22666;DHT22;11499;49.486;11.104;2023-04-15T15:46:42;8.20;99.90
22666;DHT22;11499;49.486;11.104;2023-04-15T15:49:07;8.20;99.90
22666;DHT22;11499;49.486;11.104;2023-04-15T15:51:33;8.10;99.90
22666;DHT22;11499;49.486;11.104;2023-04-15T15:56:32;8.10;99.90
22666;DHT22;11499;49.486;11.104;2023-04-15T15:58:58;8.10;99.90
22666;DHT22;11499;49.486;11.104;2023-04-15T16:01:24;8.10;99.90
22666;DHT22;11499;49.486;11.104;2023-04-15T16:03:49;8.00;99.90
22666;DHT22;11499;49.486;11.104;2023-04-15T16:06:15;8.00;99.90
22666;DHT22;11499;49.486;11.104;2023-04-15T16:08:40;8.00;99.90
22666;DHT22;11499;49.486;11.104;2023-04-15T16:11:06;8.00;99.90
22666;DHT22;11499;49.486;11.104;2023-04-15T16:13:31;7.90;99.90
22666;DHT22;11499;49.486;11.104;2023-04-15T16:15:57;7.80;99.90
22666;DHT22;11499;49.486;11.104;2023-04-15T16:18:23;7.70;99.90
22666;DHT22;11499;49.486;11.104;2023-04-15T16:23:58;7.80;99.90
22666;DHT22;11499;49.486;11.104;2023-04-15T16:26:24;7.80;99.90
22666;DHT22;11499;49.486;11.104;2023-04-15T16:28:49;7.80;99.90
22666;DHT22;11499;49.486;11.104;2023-04-15T16:31:15;7.70;99.90
22666;DHT22;11499;49.486;11.104;2023-04-15T16:33:40;7.70;99.90
22666;DHT22;11499;49.486;11.104;2023-04-15T16:36:06;7.70;99.90
22666;DHT22;11499;49.486;11.104;2023-04-15T16:38:31;7.70;99.90
22666;DHT22;11499;49.486;11.104;2023-04-15T16:40:58;7.70;99.90
22666;DHT22;11499;49.486;11.104;2023-04-15T16:43:25;7.70;99.90
22666;DHT22;11499;49.486;11.104;2023-04-15T16:45:50;7.70;99.90
22666;DHT22;11499;49.486;11.104;2023-04-15T16:51:14;7.60;99.90
22666;DHT22;11499;49.486;11.104;2023-04-15T16:53:40;7.70;99.90
22666;DHT22;11499;49.486;11.104;2023-04-15T16:56:06;7.80;99.90
22666;DHT22;11499;49.486;11.104;2023-04-15T16:58:31;7.70;99.90
22666;DHT22;11499;49.486;11.104;2023-04-15T17:00:57;7.70;99.90
22666;DHT22;11499;49.486;11.104;2023-04-15T17:03:23;7.70;99.90
22666;DHT22;11499;49.486;11.104;2023-04-15T17:05:48;7.60;99.90
22666;DHT22;11499;49.486;11.104;2023-04-15T17:08:13;7.60;99.90
22666;DHT22;11499;49.486;11.104;2023-04-15T17:10:39;7.70;99.90
22666;DHT22;11499;49.486;11.104;2023-04-15T17:13:04;7.80;99.90
22666;DHT22;11499;49.486;11.104;2023-04-15T17:18:11;7.80;99.90
22666;DHT22;11499;49.486;11.104;2023-04-15T17:20:37;7.80;99.90
22666;DHT22;11499;49.486;11.104;2023-04-15T17:23:03;7.80;99.90